Spirit Of Vi — CFL2070 — position and weather

sailwx.info

Track history (hours):
 
Tides and Currents Weather Stations Pressure Air Temp Water Temp Dewpoint Dewpoint Depression Visibility Wind Speed Wind Dir Waves Ship Positions

Spirit Of Vi

Last reported at 2017-Apr-27 18:31 UTC. Time now 2017-Apr-27 18:49 UTC.
Position N 48°46' W 123°22'.

Length 168 m; draft 5 m.

Type: Ship. MMSI: 316001269.

Date/timePositionNaut miles runAvg speedWind from/ knotsBaromVisibWave heightAir tempDewpointWater temp
2017-Apr-27 18:31N 48°46' W 123°22'5 9.1
2017-Apr-27 18:00N 48°41' W 123°25'0 0.8
2017-Apr-27 17:30N 48°42' W 123°24'917.2
2017-Apr-27 17:00N 48°50' W 123°21'714.9
2017-Apr-27 16:30N 48°56' W 123°14'612.0
2017-Apr-27 16:00N 49°00' W 123°08'0 0.4
2017-Apr-27 15:30N 49°00' W 123°08'918.5
2017-Apr-27 15:00N 48°53' W 123°17'1312.7
2017-Apr-27 14:00N 48°41' W 123°25'0 0.0
2017-Apr-27 13:30N 48°41' W 123°25'0 0.0
2017-Apr-27 13:01N 48°41' W 123°25'0 0.0
2017-Apr-27 12:28N 48°41' W 123°25'0 0.0
2017-Apr-27 11:55N 48°41' W 123°25'0 0.0
2017-Apr-27 11:28N 48°41' W 123°25'0 0.0
2017-Apr-27 10:55N 48°41' W 123°25'0 0.0
2017-Apr-27 10:28N 48°41' W 123°25'0 0.0
2017-Apr-27 09:58N 48°41' W 123°25'0 0.0
2017-Apr-27 09:28N 48°41' W 123°25'0 0.0
2017-Apr-27 08:58N 48°41' W 123°25'0 0.0
2017-Apr-27 08:28N 48°41' W 123°25'0 0.0
2017-Apr-27 07:58N 48°41' W 123°25'0 0.0
2017-Apr-27 07:28N 48°41' W 123°25'0 0.0
2017-Apr-27 06:58N 48°41' W 123°25'0 0.0
2017-Apr-27 06:25N 48°41' W 123°25'0 0.0
2017-Apr-27 05:58N 48°41' W 123°25'1 1.9
2017-Apr-27 05:30N 48°42' W 123°23'918.2
2017-Apr-27 05:00N 48°51' W 123°21'918.6
2017-Apr-27 04:30N 48°58' W 123°12'4 7.7
2017-Apr-27 04:00N 49°00' W 123°08'3 5.6
2017-Apr-27 03:31N 48°58' W 123°10'918.1
2017-Apr-27 03:00N 48°52' W 123°20'816.6
2017-Apr-27 02:31N 48°44' W 123°25'2 4.9
2017-Apr-27 02:00N 48°41' W 123°25'2 3.9
2017-Apr-27 01:30N 48°42' W 123°22'1019.0
2017-Apr-27 01:00N 48°52' W 123°21'611.9
2017-Apr-27 00:31N 48°56' W 123°15'612.7
2017-Apr-27 00:00N 49°00' W 123°08'0 0.7
2017-Apr-26 23:31N 49°00' W 123°08'1019.6
2017-Apr-26 23:01N 48°53' W 123°18'917.3
2017-Apr-26 22:30N 48°44' W 123°21'4 7.6
2017-Apr-26 22:01N 48°41' W 123°25'2 3.7
2017-Apr-26 21:30N 48°42' W 123°22'918.4
2017-Apr-26 21:00N 48°51' W 123°21'816.2
2017-Apr-26 20:30N 48°57' W 123°13'5 9.3
2017-Apr-26 20:00N 49°00' W 123°08'1 1.2
2017-Apr-26 19:30N 48°60' W 123°08'1019.8
2017-Apr-26 19:00N 48°52' W 123°18'816.2
2017-Apr-26 18:31N 48°45' W 123°23'4 7.2
2017-Apr-26 18:00N 48°41' W 123°25'1 1.5
2017-Apr-26 17:30N 48°42' W 123°24'918.0
2017-Apr-26 17:00N 48°51' W 123°21'816.8
2017-Apr-26 16:30N 48°57' W 123°13'5 9.6
2017-Apr-26 16:00N 49°00' W 123°08'0 0.4
2017-Apr-26 15:31N 49°00' W 123°08'918.6
2017-Apr-26 15:01N 48°53' W 123°17'713.8
2017-Apr-26 14:31N 48°47' W 123°21'6 5.8
2017-Apr-26 13:31N 48°41' W 123°25'0 0.0
2017-Apr-26 13:01N 48°41' W 123°25'0 0.0
2017-Apr-26 12:31N 48°41' W 123°25'0 0.0
2017-Apr-26 11:59N 48°41' W 123°25'0 0.0
2017-Apr-26 11:26N 48°41' W 123°25'0 0.0
2017-Apr-26 10:59N 48°41' W 123°25'0 0.0
2017-Apr-26 10:29N 48°41' W 123°25'0 0.0
2017-Apr-26 09:59N 48°41' W 123°25'0 0.0
2017-Apr-26 09:29N 48°41' W 123°25'0 0.0
2017-Apr-26 08:59N 48°41' W 123°25'0 0.0
2017-Apr-26 08:29N 48°41' W 123°25'0 0.0
2017-Apr-26 07:59N 48°41' W 123°25'0 0.0
2017-Apr-26 07:29N 48°41' W 123°25'0 0.0
2017-Apr-26 06:56N 48°41' W 123°25'0 0.0
2017-Apr-26 06:29N 48°41' W 123°25'0 0.0
2017-Apr-26 05:59N 48°41' W 123°25'0 0.1
2017-Apr-26 05:30N 48°41' W 123°25'815.1
2017-Apr-26 05:00N 48°49' W 123°21'714.2
2017-Apr-26 04:30N 48°55' W 123°16'815.1
2017-Apr-26 04:01N 49°00' W 123°08'0 0.1
2017-Apr-26 03:30N 49°00' W 123°08'917.9
2017-Apr-26 03:00N 48°53' W 123°17'715.0
2017-Apr-26 02:30N 48°47' W 123°21'611.2
2017-Apr-26 02:00N 48°41' W 123°25'0 0.2
2017-Apr-26 01:30N 48°41' W 123°25'815.2
2017-Apr-26 01:01N 48°49' W 123°21'816.5
2017-Apr-26 00:31N 48°56' W 123°15'612.7
2017-Apr-26 00:01N 49°00' W 123°08'0 0.2
2017-Apr-25 23:30N 49°00' W 123°08'918.8
2017-Apr-25 23:00N 48°53' W 123°17'816.6
2017-Apr-25 22:30N 48°45' W 123°21'5 9.2
2017-Apr-25 22:00N 48°41' W 123°25'1 1.8
2017-Apr-25 21:30N 48°42' W 123°23'917.3
2017-Apr-25 21:00N 48°50' W 123°21'612.4
2017-Apr-25 20:30N 48°55' W 123°16'714.4
2017-Apr-25 20:00N 49°00' W 123°08'0 0.0
2017-Apr-25 19:30N 49°00' W 123°08'917.4
2017-Apr-25 19:00N 48°54' W 123°17'815.2
2017-Apr-25 18:30N 48°47' W 123°20'611.7
2017-Apr-25 18:00N 48°41' W 123°25'0 0.2
2017-Apr-25 17:30N 48°41' W 123°25'816.0
2017-Apr-25 17:01N 48°49' W 123°21'815.1
2017-Apr-25 16:30N 48°56' W 123°15'713.1
2017-Apr-25 16:00N 49°00' W 123°08'0 0.0
2017-Apr-25 15:30N 49°00' W 123°08'917.3
2017-Apr-25 15:01N 48°54' W 123°16'1313.4
2017-Apr-25 14:00N 48°41' W 123°25'0 0.0
2017-Apr-25 13:31N 48°41' W 123°25'0 0.0
2017-Apr-25 12:58N 48°41' W 123°25'0 0.0
2017-Apr-25 12:28N 48°41' W 123°25'0 0.0
2017-Apr-25 11:58N 48°41' W 123°25'0 0.0
2017-Apr-25 11:28N 48°41' W 123°25'0 0.0
2017-Apr-25 10:58N 48°41' W 123°25'0 0.0
2017-Apr-25 10:28N 48°41' W 123°25'0 0.0
2017-Apr-25 09:58N 48°41' W 123°25'0 0.0
2017-Apr-25 09:28N 48°41' W 123°25'0 0.0
2017-Apr-25 08:58N 48°41' W 123°25'0 0.0
2017-Apr-25 08:28N 48°41' W 123°25'0 0.0
2017-Apr-25 07:58N 48°41' W 123°25'0 0.0
2017-Apr-25 07:28N 48°41' W 123°25'0 0.0
2017-Apr-25 06:55N 48°41' W 123°25'0 0.0
2017-Apr-25 06:28N 48°41' W 123°25'0 0.0
2017-Apr-25 05:58N 48°41' W 123°25'0 0.0
2017-Apr-25 05:30N 48°41' W 123°25'611.7
2017-Apr-25 05:00N 48°47' W 123°21'816.7
2017-Apr-25 04:30N 48°55' W 123°16'815.9
2017-Apr-25 04:00N 49°00' W 123°08'0 0.1
2017-Apr-25 03:30N 49°00' W 123°08'815.7
2017-Apr-25 03:00N 48°54' W 123°15'714.9
2017-Apr-25 02:30N 48°48' W 123°21'713.6
2017-Apr-25 02:00N 48°41' W 123°25'0 0.0
2017-Apr-25 01:31N 48°41' W 123°25'713.5
2017-Apr-25 01:00N 48°48' W 123°21'816.0
2017-Apr-25 00:30N 48°55' W 123°16'714.9
2017-Apr-25 00:00N 49°00' W 123°08'0 0.0
2017-Apr-24 23:30N 49°00' W 123°08'714.5
2017-Apr-24 23:00N 48°55' W 123°15'816.1
2017-Apr-24 22:30N 48°48' W 123°21'713.8
2017-Apr-24 22:00N 48°41' W 123°25'0 0.2
2017-Apr-24 21:30N 48°41' W 123°25'816.0
2017-Apr-24 21:00N 48°49' W 123°21'815.1
2017-Apr-24 20:30N 48°56' W 123°15'713.5
2017-Apr-24 20:01N 49°00' W 123°08'0 0.0
2017-Apr-24 19:31N 49°00' W 123°08'815.3
2017-Apr-24 19:00N 48°54' W 123°15'815.9
2017-Apr-24 18:30N 48°47' W 123°21'613.0
2017-Apr-24 18:01N 48°41' W 123°25'0 0.1
2017-Apr-24 17:30N 48°41' W 123°25'713.9
2017-Apr-24 17:00N 48°48' W 123°21'816.4
2017-Apr-24 16:30N 48°55' W 123°15'714.0
2017-Apr-24 16:00N 49°00' W 123°08'0 0.0
2017-Apr-24 15:30N 49°00' W 123°08'816.8
2017-Apr-24 15:00N 48°54' W 123°16'714.2
2017-Apr-24 14:30N 48°47' W 123°21'7 6.6
2017-Apr-24 13:31N 48°41' W 123°25'0 0.0
2017-Apr-24 12:59N 48°41' W 123°25'0 0.0
2017-Apr-24 12:29N 48°41' W 123°25'0 0.0
2017-Apr-24 11:59N 48°41' W 123°25'0 0.0
2017-Apr-24 11:29N 48°41' W 123°25'0 0.0
2017-Apr-24 10:59N 48°41' W 123°25'0 0.0
2017-Apr-24 10:29N 48°41' W 123°25'0 0.0
2017-Apr-24 09:59N 48°41' W 123°25'0 0.0
2017-Apr-24 09:29N 48°41' W 123°25'0 0.0
2017-Apr-24 08:59N 48°41' W 123°25'0 0.0
2017-Apr-24 08:29N 48°41' W 123°25'0 0.0
2017-Apr-24 07:59N 48°41' W 123°25'0 0.0
2017-Apr-24 07:29N 48°41' W 123°25'0 0.0
2017-Apr-24 06:56N 48°41' W 123°25'0 0.0
2017-Apr-24 06:29N 48°41' W 123°25'0 0.0
2017-Apr-24 05:56N 48°41' W 123°25'0 0.1
2017-Apr-24 05:30N 48°41' W 123°25'714.1
2017-Apr-24 05:00N 48°48' W 123°21'815.9
2017-Apr-24 04:31N 48°55' W 123°15'714.5
2017-Apr-24 04:01N 49°00' W 123°08'0 0.2
2017-Apr-24 03:30N 49°00' W 123°08'815.7
2017-Apr-24 03:00N 48°54' W 123°16'714.0
2017-Apr-24 02:30N 48°48' W 123°21'714.3
2017-Apr-24 02:00N 48°41' W 123°25'0 0.0
2017-Apr-24 01:30N 48°41' W 123°25'714.0
2017-Apr-24 01:01N 48°48' W 123°21'815.6
2017-Apr-24 00:30N 48°55' W 123°16'714.8
2017-Apr-24 00:00N 49°00' W 123°08'0 0.0
2017-Apr-23 23:30N 49°00' W 123°08'713.9
2017-Apr-23 23:00N 48°55' W 123°15'815.3
2017-Apr-23 22:30N 48°48' W 123°21'715.0
2017-Apr-23 22:00N 48°41' W 123°25'0 0.0
2017-Apr-23 21:31N 48°41' W 123°25'713.8
2017-Apr-23 21:00N 48°48' W 123°21'815.2
2017-Apr-23 20:30N 48°55' W 123°17'815.7
2017-Apr-23 20:01N 49°00' W 123°08'0 0.0
2017-Apr-23 19:30N 49°00' W 123°08'815.2
2017-Apr-23 19:00N 48°54' W 123°15'815.4
2017-Apr-23 18:30N 48°48' W 123°21'713.6
2017-Apr-23 18:00N 48°41' W 123°25'0 0.1
2017-Apr-23 17:30N 48°41' W 123°25'815.1
2017-Apr-23 17:01N 48°48' W 123°21'816.3
2017-Apr-23 16:30N 48°56' W 123°15'713.0
2017-Apr-23 16:00N 49°00' W 123°08'0 0.0
2017-Apr-23 15:30N 49°00' W 123°08'714.8
2017-Apr-23 15:00N 48°54' W 123°15'714.3
2017-Apr-23 14:30N 48°48' W 123°21'8 7.5
2017-Apr-23 13:30N 48°41' W 123°25'0 0.0
2017-Apr-23 13:01N 48°41' W 123°25'0 0.0
2017-Apr-23 12:31N 48°41' W 123°25'0 0.0
2017-Apr-23 12:00N 48°41' W 123°25'0 0.0
2017-Apr-23 11:30N 48°41' W 123°25'0 0.0
2017-Apr-23 11:00N 48°41' W 123°25'0 0.0
2017-Apr-23 10:30N 48°41' W 123°25'0 0.0
2017-Apr-23 10:00N 48°41' W 123°25'0 0.0
2017-Apr-23 09:30N 48°41' W 123°25'0 0.0
2017-Apr-23 09:00N 48°41' W 123°25'0 0.0
2017-Apr-23 08:30N 48°41' W 123°25'0 0.0
2017-Apr-23 08:00N 48°41' W 123°25'0 0.0
2017-Apr-23 07:30N 48°41' W 123°25'0 0.0
2017-Apr-23 07:00N 48°41' W 123°25'0 0.0
2017-Apr-23 06:30N 48°41' W 123°25'0 0.0
2017-Apr-23 06:00N 48°41' W 123°25'0 0.2
2017-Apr-23 05:30N 48°41' W 123°25'815.8
2017-Apr-23 05:00N 48°49' W 123°20'815.4
2017-Apr-23 04:30N 48°55' W 123°14'612.9
2017-Apr-23 04:00N 49°00' W 123°08'0 0.0
2017-Apr-23 03:30N 49°00' W 123°08'816.0
2017-Apr-23 03:00N 48°54' W 123°16'815.6
2017-Apr-23 02:30N 48°47' W 123°21'612.6
2017-Apr-23 02:00N 48°41' W 123°25'0 0.4
2017-Apr-23 01:31N 48°42' W 123°24'816.7
2017-Apr-23 01:00N 48°49' W 123°21'815.0
2017-Apr-23 00:30N 48°56' W 123°15'612.4
2017-Apr-23 00:00N 49°00' W 123°08'0 0.0
2017-Apr-22 23:30N 49°00' W 123°08'815.8
2017-Apr-22 23:00N 48°54' W 123°16'815.6
2017-Apr-22 22:30N 48°47' W 123°21'612.8
2017-Apr-22 22:00N 48°41' W 123°25'0 0.2
2017-Apr-22 21:30N 48°41' W 123°25'816.1
2017-Apr-22 21:00N 48°49' W 123°21'816.1
2017-Apr-22 20:30N 48°56' W 123°15'612.1
2017-Apr-22 20:00N 49°00' W 123°08'0 0.0
2017-Apr-22 19:30N 49°00' W 123°08'917.2
2017-Apr-22 19:00N 48°54' W 123°16'816.2
2017-Apr-22 18:30N 48°46' W 123°21'511.0
2017-Apr-22 18:00N 48°41' W 123°25'0 0.0
2017-Apr-22 17:30N 48°41' W 123°25'714.2
2017-Apr-22 17:00N 48°48' W 123°21'816.0
2017-Apr-22 16:30N 48°55' W 123°16'714.2
2017-Apr-22 16:00N 49°00' W 123°08'0 0.1
2017-Apr-22 15:31N 49°00' W 123°08'917.2
2017-Apr-22 15:01N 48°54' W 123°16'714.7
2017-Apr-22 14:31N 48°47' W 123°21'6 6.1
2017-Apr-22 13:30N 48°41' W 123°25'0 0.0
2017-Apr-22 13:00N 48°41' W 123°25'0 0.0
2017-Apr-22 12:30N 48°41' W 123°25'0 0.0
2017-Apr-22 11:57N 48°41' W 123°25'0 0.0
2017-Apr-22 11:30N 48°41' W 123°25'0 0.0
2017-Apr-22 11:00N 48°41' W 123°25'0 0.0
2017-Apr-22 10:30N 48°41' W 123°25'0 0.0
2017-Apr-22 10:00N 48°41' W 123°25'0 0.0
2017-Apr-22 09:27N 48°41' W 123°25'0 0.0
2017-Apr-22 09:00N 48°41' W 123°25'0 0.0
2017-Apr-22 08:30N 48°41' W 123°25'0 0.0
2017-Apr-22 08:00N 48°41' W 123°25'0 0.0
2017-Apr-22 07:30N 48°41' W 123°25'0 0.0
2017-Apr-22 07:00N 48°41' W 123°25'0 0.0
2017-Apr-22 06:30N 48°41' W 123°25'0 0.0
2017-Apr-22 06:00N 48°41' W 123°25'0 0.0
2017-Apr-22 05:30N 48°41' W 123°25'713.3
2017-Apr-22 05:00N 48°48' W 123°21'815.7
2017-Apr-22 04:30N 48°55' W 123°16'815.5
2017-Apr-22 04:00N 49°00' W 123°08'0 0.1
2017-Apr-22 03:31N 49°00' W 123°08'714.6
2017-Apr-22 03:00N 48°55' W 123°15'815.2
2017-Apr-22 02:30N 48°48' W 123°21'714.4
2017-Apr-22 02:01N 48°41' W 123°25'0 0.3
2017-Apr-22 01:30N 48°41' W 123°25'713.7
2017-Apr-22 01:00N 48°48' W 123°21'815.2
2017-Apr-22 00:30N 48°55' W 123°16'815.5
2017-Apr-22 00:00N 49°00' W 123°08'0 0.0
2017-Apr-21 23:30N 49°00' W 123°08'714.3
2017-Apr-21 23:00N 48°55' W 123°15'815.2
2017-Apr-21 22:30N 48°48' W 123°21'714.8
2017-Apr-21 22:01N 48°41' W 123°25'0 0.0
2017-Apr-21 21:31N 48°41' W 123°25'612.6
2017-Apr-21 21:00N 48°47' W 123°21'816.8
2017-Apr-21 20:30N 48°55' W 123°16'815.3
2017-Apr-21 20:00N 49°00' W 123°08'0 0.0
2017-Apr-21 19:30N 49°00' W 123°08'816.7
2017-Apr-21 19:00N 48°54' W 123°16'714.9
2017-Apr-21 18:30N 48°47' W 123°21'612.8
2017-Apr-21 18:00N 48°41' W 123°25'0 0.2
2017-Apr-21 17:30N 48°41' W 123°25'815.8
2017-Apr-21 17:00N 48°49' W 123°21'815.6
2017-Apr-21 16:30N 48°56' W 123°15'613.0
2017-Apr-21 16:01N 49°00' W 123°08'0 0.0
2017-Apr-21 15:30N 49°00' W 123°08'816.6
2017-Apr-21 15:00N 48°54' W 123°16'714.9
2017-Apr-21 14:30N 48°47' W 123°21'6 6.4
2017-Apr-21 13:31N 48°41' W 123°25'0 0.0
2017-Apr-21 12:58N 48°41' W 123°25'0 0.0
2017-Apr-21 12:28N 48°41' W 123°25'0 0.0
2017-Apr-21 11:58N 48°41' W 123°25'0 0.0
2017-Apr-21 11:28N 48°41' W 123°25'0 0.0
2017-Apr-21 10:58N 48°41' W 123°25'0 0.0
2017-Apr-21 10:28N 48°41' W 123°25'0 0.0
2017-Apr-21 09:58N 48°41' W 123°25'0 0.0
2017-Apr-21 09:28N 48°41' W 123°25'0 0.0
2017-Apr-21 08:58N 48°41' W 123°25'0 0.0
2017-Apr-21 08:28N 48°41' W 123°25'0 0.0
2017-Apr-21 07:49N 48°41' W 123°25'0 0.0
2017-Apr-21 07:28N 48°41' W 123°25'0 0.0
2017-Apr-21 06:58N 48°41' W 123°25'0 0.0
2017-Apr-21 06:25N 48°41' W 123°25'0 0.0
2017-Apr-21 05:58N 48°41' W 123°25'0 0.0
2017-Apr-21 05:29N 48°41' W 123°25'714.3
2017-Apr-21 05:00N 48°48' W 123°21'714.9
2017-Apr-21 04:30N 48°55' W 123°16'815.7
2017-Apr-21 04:00N 49°00' W 123°08'0 0.0
2017-Apr-21 03:30N 49°00' W 123°08'815.0
2017-Apr-21 03:00N 48°55' W 123°15'816.0
2017-Apr-21 02:31N 48°47' W 123°21'713.0
2017-Apr-21 02:00N 48°41' W 123°25'0 0.1
2017-Apr-21 01:31N 48°41' W 123°25'713.6
2017-Apr-21 01:00N 48°48' W 123°21'816.2
2017-Apr-21 00:30N 48°55' W 123°16'714.6
2017-Apr-21 00:00N 49°00' W 123°08'0 0.0
2017-Apr-20 23:30N 49°00' W 123°08'817.0
2017-Apr-20 23:01N 48°54' W 123°16'714.8
2017-Apr-20 22:30N 48°47' W 123°21'612.6
2017-Apr-20 22:00N 48°41' W 123°25'0 0.1
2017-Apr-20 21:30N 48°41' W 123°25'815.5
2017-Apr-20 21:00N 48°49' W 123°21'816.7
2017-Apr-20 20:30N 48°56' W 123°15'612.3
2017-Apr-20 20:00N 49°00' W 123°08'0 0.5
2017-Apr-20 19:30N 49°00' W 123°08'917.8
2017-Apr-20 19:01N 48°53' W 123°17'612.7
2017-Apr-20 18:30N 48°48' W 123°21'713.4
2017-Apr-20 18:00N 48°41' W 123°25'0 0.1
2017-Apr-20 17:31N 48°41' W 123°25'815.0
2017-Apr-20 17:00N 48°48' W 123°20'713.8
2017-Apr-20 16:31N 48°55' W 123°16'815.6
2017-Apr-20 16:01N 49°00' W 123°08'0 0.0
2017-Apr-20 15:30N 49°00' W 123°08'714.4
2017-Apr-20 15:00N 48°55' W 123°15'1514.8
2017-Apr-20 14:00N 48°41' W 123°25'0 0.1
2017-Apr-20 13:31N 48°41' W 123°25'0 0.0
2017-Apr-20 13:00N 48°41' W 123°25'0 0.0
2017-Apr-20 12:30N 48°41' W 123°25'0 0.0
2017-Apr-20 12:00N 48°41' W 123°25'0 0.0
2017-Apr-20 11:30N 48°41' W 123°25'0 0.0
2017-Apr-20 11:00N 48°41' W 123°25'0 0.0
2017-Apr-20 10:30N 48°41' W 123°25'0 0.0
2017-Apr-20 10:00N 48°41' W 123°25'0 0.0
2017-Apr-20 09:30N 48°41' W 123°25'0 0.0
2017-Apr-20 09:00N 48°41' W 123°25'0 0.0
2017-Apr-20 08:30N 48°41' W 123°25'0 0.0
2017-Apr-20 08:00N 48°41' W 123°25'0 0.0
2017-Apr-20 07:30N 48°41' W 123°25'0 0.0
2017-Apr-20 07:00N 48°41' W 123°25'0 0.0
2017-Apr-20 06:30N 48°41' W 123°25'0 0.0
2017-Apr-20 06:00N 48°41' W 123°25'0 0.2
2017-Apr-20 05:30N 48°41' W 123°25'815.1
2017-Apr-20 05:01N 48°49' W 123°21'713.7
2017-Apr-20 04:30N 48°55' W 123°16'815.6
2017-Apr-20 04:01N 49°00' W 123°08'0 0.0
2017-Apr-20 03:30N 49°00' W 123°08'815.1
2017-Apr-20 03:01N 48°54' W 123°15'714.1
2017-Apr-20 02:30N 48°48' W 123°21'714.8
2017-Apr-20 02:00N 48°41' W 123°25'0 0.1
2017-Apr-20 01:31N 48°41' W 123°25'714.3
2017-Apr-20 01:00N 48°48' W 123°21'714.8
2017-Apr-20 00:30N 48°55' W 123°16'815.3
2017-Apr-20 00:00N 49°00' W 123°08'0 0.0
2017-Apr-19 23:30N 49°00' W 123°08'815.4
2017-Apr-19 23:00N 48°54' W 123°15'815.1
2017-Apr-19 22:30N 48°48' W 123°21'713.9
2017-Apr-19 22:00N 48°41' W 123°25'0 0.0
2017-Apr-19 21:30N 48°41' W 123°25'713.7
2017-Apr-19 21:00N 48°48' W 123°21'816.7
2017-Apr-19 20:30N 48°55' W 123°16'714.1
2017-Apr-19 20:00N 49°00' W 123°08'0 0.0
2017-Apr-19 19:30N 49°00' W 123°08'714.2
2017-Apr-19 19:00N 48°55' W 123°15'714.4
2017-Apr-19 18:30N 48°49' W 123°21'815.7
2017-Apr-19 18:00N 48°41' W 123°25'0 0.0
2017-Apr-19 17:31N 48°41' W 123°25'612.8
2017-Apr-19 17:01N 48°47' W 123°21'816.0
2017-Apr-19 16:31N 48°55' W 123°16'815.5
2017-Apr-19 16:00N 49°00' W 123°08'0 0.2
2017-Apr-19 15:30N 49°00' W 123°08'714.1
2017-Apr-19 15:00N 48°55' W 123°15'815.7
2017-Apr-19 14:30N 48°48' W 123°20'7 7.2
2017-Apr-19 13:30N 48°41' W 123°25'0 0.0
2017-Apr-19 13:00N 48°41' W 123°25'0 0.0
2017-Apr-19 12:30N 48°41' W 123°25'0 0.0
2017-Apr-19 12:00N 48°41' W 123°25'0 0.0
2017-Apr-19 11:30N 48°41' W 123°25'0 0.0
2017-Apr-19 11:00N 48°41' W 123°25'0 0.0
2017-Apr-19 10:30N 48°41' W 123°25'0 0.0
2017-Apr-19 10:00N 48°41' W 123°25'0 0.0
2017-Apr-19 09:30N 48°41' W 123°25'0 0.0
2017-Apr-19 09:00N 48°41' W 123°25'0 0.0
2017-Apr-19 08:30N 48°41' W 123°25'0 0.0
2017-Apr-19 08:00N 48°41' W 123°25'0 0.0
2017-Apr-19 07:30N 48°41' W 123°25'0 0.0
2017-Apr-19 07:00N 48°41' W 123°25'0 0.0
2017-Apr-19 06:30N 48°41' W 123°25'0 0.0
2017-Apr-19 06:00N 48°41' W 123°25'0 0.0
2017-Apr-19 05:30N 48°41' W 123°25'714.1
2017-Apr-19 05:00N 48°48' W 123°21'714.7
2017-Apr-19 04:30N 48°55' W 123°16'815.5
2017-Apr-19 04:00N 49°00' W 123°08'0 0.1
2017-Apr-19 03:30N 49°00' W 123°08'715.0
2017-Apr-19 03:00N 48°55' W 123°15'714.8
2017-Apr-19 02:30N 48°48' W 123°21'714.6
2017-Apr-19 02:00N 48°41' W 123°25'0 0.3
2017-Apr-19 01:31N 48°41' W 123°25'815.0
2017-Apr-19 01:00N 48°49' W 123°21'815.0
2017-Apr-19 00:30N 48°55' W 123°16'714.3
2017-Apr-19 00:00N 49°00' W 123°08'0 0.0
2017-Apr-18 23:30N 49°00' W 123°08'815.1
2017-Apr-18 23:00N 48°54' W 123°15'815.2
2017-Apr-18 22:31N 48°48' W 123°21'713.8
2017-Apr-18 22:00N 48°41' W 123°25'0 0.0
2017-Apr-18 21:30N 48°41' W 123°25'713.9
2017-Apr-18 21:00N 48°48' W 123°21'816.8
2017-Apr-18 20:30N 48°55' W 123°15'713.8
2017-Apr-18 20:00N 49°00' W 123°08'0 0.0
2017-Apr-18 19:30N 49°00' W 123°08'815.6
2017-Apr-18 19:00N 48°54' W 123°15'815.2
2017-Apr-18 18:30N 48°48' W 123°21'713.3
2017-Apr-18 18:00N 48°41' W 123°25'0 0.1
2017-Apr-18 17:30N 48°41' W 123°25'815.4
2017-Apr-18 17:00N 48°49' W 123°21'816.3
2017-Apr-18 16:30N 48°56' W 123°15'612.8
2017-Apr-18 16:01N 49°00' W 123°08'0 0.0
2017-Apr-18 15:30N 49°00' W 123°08'714.5
2017-Apr-18 15:00N 48°55' W 123°15'815.9
2017-Apr-18 14:30N 48°48' W 123°21'7 6.9
2017-Apr-18 13:30N 48°41' W 123°25'0 0.0
2017-Apr-18 13:00N 48°41' W 123°25'0 0.0
2017-Apr-18 12:30N 48°41' W 123°25'0 0.0
2017-Apr-18 12:00N 48°41' W 123°25'0 0.0
2017-Apr-18 11:30N 48°41' W 123°25'0 0.0
2017-Apr-18 11:00N 48°41' W 123°25'0 0.0
2017-Apr-18 10:30N 48°41' W 123°25'0 0.0
2017-Apr-18 10:00N 48°41' W 123°25'0 0.0
2017-Apr-18 09:30N 48°41' W 123°25'0 0.0
2017-Apr-18 09:00N 48°41' W 123°25'0 0.0
2017-Apr-18 08:30N 48°41' W 123°25'0 0.0
2017-Apr-18 08:00N 48°41' W 123°25'0 0.0
2017-Apr-18 07:30N 48°41' W 123°25'0 0.0
2017-Apr-18 07:00N 48°41' W 123°25'0 0.0
2017-Apr-18 06:30N 48°41' W 123°25'0 0.0
2017-Apr-18 06:00N 48°41' W 123°25'0 0.0
2017-Apr-18 05:31N 48°41' W 123°25'713.5
2017-Apr-18 05:01N 48°48' W 123°21'815.7
2017-Apr-18 04:31N 48°55' W 123°16'815.2
2017-Apr-18 04:00N 49°00' W 123°08'0 0.1
2017-Apr-18 03:31N 49°00' W 123°08'714.3
2017-Apr-18 03:00N 48°55' W 123°15'815.0
2017-Apr-18 02:30N 48°48' W 123°21'714.7
2017-Apr-18 02:00N 48°41' W 123°25'0 0.1
2017-Apr-18 01:30N 48°41' W 123°25'815.2
2017-Apr-18 01:00N 48°49' W 123°21'714.8
2017-Apr-18 00:30N 48°55' W 123°16'714.7
2017-Apr-18 00:00N 49°00' W 123°08'0 0.0
2017-Apr-17 23:31N 49°00' W 123°08'714.8
2017-Apr-17 23:00N 48°54' W 123°15'714.8
2017-Apr-17 22:30N 48°48' W 123°21'714.5
2017-Apr-17 22:00N 48°41' W 123°25'0 0.0
2017-Apr-17 21:30N 48°41' W 123°25'611.6
2017-Apr-17 21:00N 48°47' W 123°21'816.3
2017-Apr-17 20:31N 48°54' W 123°16'816.6
2017-Apr-17 20:01N 49°00' W 123°08'0 0.1
2017-Apr-17 19:30N 49°00' W 123°08'714.5
2017-Apr-17 19:00N 48°55' W 123°15'  
Track history (hours):
 
Tides and Currents Weather Stations Pressure Air Temp Water Temp Dewpoint Dewpoint Depression Visibility Wind Speed Wind Dir Waves Ship Positions

Spirit Of Vi

Last reported at 2017-Apr-27 18:31 UTC. Time now 2017-Apr-27 18:49 UTC.
Position N 48°46' W 123°22'.

Length 168 m; draft 5 m.

Type: Ship. MMSI: 316001269.

Date/timePositionNaut miles runAvg speedWind from/ knotsBaromVisibWave heightAir tempDewpointWater temp
2017-Apr-27 18:31N 48°46' W 123°22'5 9.1
2017-Apr-27 18:00N 48°41' W 123°25'0 0.8
2017-Apr-27 17:30N 48°42' W 123°24'917.2
2017-Apr-27 17:00N 48°50' W 123°21'714.9
2017-Apr-27 16:30N 48°56' W 123°14'612.0
2017-Apr-27 16:00N 49°00' W 123°08'0 0.4
2017-Apr-27 15:30N 49°00' W 123°08'918.5
2017-Apr-27 15:00N 48°53' W 123°17'1312.7
2017-Apr-27 14:00N 48°41' W 123°25'0 0.0
2017-Apr-27 13:30N 48°41' W 123°25'0 0.0
2017-Apr-27 13:01N 48°41' W 123°25'0 0.0
2017-Apr-27 12:28N 48°41' W 123°25'0 0.0
2017-Apr-27 11:55N 48°41' W 123°25'0 0.0
2017-Apr-27 11:28N 48°41' W 123°25'0 0.0
2017-Apr-27 10:55N 48°41' W 123°25'0 0.0
2017-Apr-27 10:28N 48°41' W 123°25'0 0.0
2017-Apr-27 09:58N 48°41' W 123°25'0 0.0
2017-Apr-27 09:28N 48°41' W 123°25'0 0.0
2017-Apr-27 08:58N 48°41' W 123°25'0 0.0
2017-Apr-27 08:28N 48°41' W 123°25'0 0.0
2017-Apr-27 07:58N 48°41' W 123°25'0 0.0
2017-Apr-27 07:28N 48°41' W 123°25'0 0.0
2017-Apr-27 06:58N 48°41' W 123°25'0 0.0
2017-Apr-27 06:25N 48°41' W 123°25'0 0.0
2017-Apr-27 05:58N 48°41' W 123°25'1 1.9
2017-Apr-27 05:30N 48°42' W 123°23'918.2
2017-Apr-27 05:00N 48°51' W 123°21'918.6
2017-Apr-27 04:30N 48°58' W 123°12'4 7.7
2017-Apr-27 04:00N 49°00' W 123°08'3 5.6
2017-Apr-27 03:31N 48°58' W 123°10'918.1
2017-Apr-27 03:00N 48°52' W 123°20'816.6
2017-Apr-27 02:31N 48°44' W 123°25'2 4.9
2017-Apr-27 02:00N 48°41' W 123°25'2 3.9
2017-Apr-27 01:30N 48°42' W 123°22'1019.0
2017-Apr-27 01:00N 48°52' W 123°21'611.9
2017-Apr-27 00:31N 48°56' W 123°15'612.7
2017-Apr-27 00:00N 49°00' W 123°08'0 0.7
2017-Apr-26 23:31N 49°00' W 123°08'1019.6
2017-Apr-26 23:01N 48°53' W 123°18'917.3
2017-Apr-26 22:30N 48°44' W 123°21'4 7.6
2017-Apr-26 22:01N 48°41' W 123°25'2 3.7
2017-Apr-26 21:30N 48°42' W 123°22'918.4
2017-Apr-26 21:00N 48°51' W 123°21'816.2
2017-Apr-26 20:30N 48°57' W 123°13'5 9.3
2017-Apr-26 20:00N 49°00' W 123°08'1 1.2
2017-Apr-26 19:30N 48°60' W 123°08'1019.8
2017-Apr-26 19:00N 48°52' W 123°18'816.2
2017-Apr-26 18:31N 48°45' W 123°23'4 7.2
2017-Apr-26 18:00N 48°41' W 123°25'1 1.5
2017-Apr-26 17:30N 48°42' W 123°24'918.0
2017-Apr-26 17:00N 48°51' W 123°21'816.8
2017-Apr-26 16:30N 48°57' W 123°13'5 9.6
2017-Apr-26 16:00N 49°00' W 123°08'0 0.4
2017-Apr-26 15:31N 49°00' W 123°08'918.6
2017-Apr-26 15:01N 48°53' W 123°17'713.8
2017-Apr-26 14:31N 48°47' W 123°21'6 5.8
2017-Apr-26 13:31N 48°41' W 123°25'0 0.0
2017-Apr-26 13:01N 48°41' W 123°25'0 0.0
2017-Apr-26 12:31N 48°41' W 123°25'0 0.0
2017-Apr-26 11:59N 48°41' W 123°25'0 0.0
2017-Apr-26 11:26N 48°41' W 123°25'0 0.0
2017-Apr-26 10:59N 48°41' W 123°25'0 0.0
2017-Apr-26 10:29N 48°41' W 123°25'0 0.0
2017-Apr-26 09:59N 48°41' W 123°25'0 0.0
2017-Apr-26 09:29N 48°41' W 123°25'0 0.0
2017-Apr-26 08:59N 48°41' W 123°25'0 0.0
2017-Apr-26 08:29N 48°41' W 123°25'0 0.0
2017-Apr-26 07:59N 48°41' W 123°25'0 0.0
2017-Apr-26 07:29N 48°41' W 123°25'0 0.0
2017-Apr-26 06:56N 48°41' W 123°25'0 0.0
2017-Apr-26 06:29N 48°41' W 123°25'0 0.0
2017-Apr-26 05:59N 48°41' W 123°25'0 0.1
2017-Apr-26 05:30N 48°41' W 123°25'815.1
2017-Apr-26 05:00N 48°49' W 123°21'714.2
2017-Apr-26 04:30N 48°55' W 123°16'815.1
2017-Apr-26 04:01N 49°00' W 123°08'0 0.1
2017-Apr-26 03:30N 49°00' W 123°08'917.9
2017-Apr-26 03:00N 48°53' W 123°17'715.0
2017-Apr-26 02:30N 48°47' W 123°21'611.2
2017-Apr-26 02:00N 48°41' W 123°25'0 0.2
2017-Apr-26 01:30N 48°41' W 123°25'815.2
2017-Apr-26 01:01N 48°49' W 123°21'816.5
2017-Apr-26 00:31N 48°56' W 123°15'612.7
2017-Apr-26 00:01N 49°00' W 123°08'0 0.2
2017-Apr-25 23:30N 49°00' W 123°08'918.8
2017-Apr-25 23:00N 48°53' W 123°17'816.6
2017-Apr-25 22:30N 48°45' W 123°21'5 9.2
2017-Apr-25 22:00N 48°41' W 123°25'1 1.8
2017-Apr-25 21:30N 48°42' W 123°23'917.3
2017-Apr-25 21:00N 48°50' W 123°21'612.4
2017-Apr-25 20:30N 48°55' W 123°16'714.4
2017-Apr-25 20:00N 49°00' W 123°08'0 0.0
2017-Apr-25 19:30N 49°00' W 123°08'917.4
2017-Apr-25 19:00N 48°54' W 123°17'815.2
2017-Apr-25 18:30N 48°47' W 123°20'611.7
2017-Apr-25 18:00N 48°41' W 123°25'0 0.2
2017-Apr-25 17:30N 48°41' W 123°25'816.0
2017-Apr-25 17:01N 48°49' W 123°21'815.1
2017-Apr-25 16:30N 48°56' W 123°15'713.1
2017-Apr-25 16:00N 49°00' W 123°08'0 0.0
2017-Apr-25 15:30N 49°00' W 123°08'917.3
2017-Apr-25 15:01N 48°54' W 123°16'1313.4
2017-Apr-25 14:00N 48°41' W 123°25'0 0.0
2017-Apr-25 13:31N 48°41' W 123°25'0 0.0
2017-Apr-25 12:58N 48°41' W 123°25'0 0.0
2017-Apr-25 12:28N 48°41' W 123°25'0 0.0
2017-Apr-25 11:58N 48°41' W 123°25'0 0.0
2017-Apr-25 11:28N 48°41' W 123°25'0 0.0
2017-Apr-25 10:58N 48°41' W 123°25'0 0.0
2017-Apr-25 10:28N 48°41' W 123°25'0 0.0
2017-Apr-25 09:58N 48°41' W 123°25'0 0.0
2017-Apr-25 09:28N 48°41' W 123°25'0 0.0
2017-Apr-25 08:58N 48°41' W 123°25'0 0.0
2017-Apr-25 08:28N 48°41' W 123°25'0 0.0
2017-Apr-25 07:58N 48°41' W 123°25'0 0.0
2017-Apr-25 07:28N 48°41' W 123°25'0 0.0
2017-Apr-25 06:55N 48°41' W 123°25'0 0.0
2017-Apr-25 06:28N 48°41' W 123°25'0 0.0
2017-Apr-25 05:58N 48°41' W 123°25'0 0.0
2017-Apr-25 05:30N 48°41' W 123°25'611.7
2017-Apr-25 05:00N 48°47' W 123°21'816.7
2017-Apr-25 04:30N 48°55' W 123°16'815.9
2017-Apr-25 04:00N 49°00' W 123°08'0 0.1
2017-Apr-25 03:30N 49°00' W 123°08'815.7
2017-Apr-25 03:00N 48°54' W 123°15'714.9
2017-Apr-25 02:30N 48°48' W 123°21'713.6
2017-Apr-25 02:00N 48°41' W 123°25'0 0.0
2017-Apr-25 01:31N 48°41' W 123°25'713.5
2017-Apr-25 01:00N 48°48' W 123°21'816.0
2017-Apr-25 00:30N 48°55' W 123°16'714.9
2017-Apr-25 00:00N 49°00' W 123°08'0 0.0
2017-Apr-24 23:30N 49°00' W 123°08'714.5
2017-Apr-24 23:00N 48°55' W 123°15'816.1
2017-Apr-24 22:30N 48°48' W 123°21'713.8
2017-Apr-24 22:00N 48°41' W 123°25'0 0.2
2017-Apr-24 21:30N 48°41' W 123°25'816.0
2017-Apr-24 21:00N 48°49' W 123°21'815.1
2017-Apr-24 20:30N 48°56' W 123°15'713.5
2017-Apr-24 20:01N 49°00' W 123°08'0 0.0
2017-Apr-24 19:31N 49°00' W 123°08'815.3
2017-Apr-24 19:00N 48°54' W 123°15'815.9
2017-Apr-24 18:30N 48°47' W 123°21'613.0
2017-Apr-24 18:01N 48°41' W 123°25'0 0.1
2017-Apr-24 17:30N 48°41' W 123°25'713.9
2017-Apr-24 17:00N 48°48' W 123°21'816.4
2017-Apr-24 16:30N 48°55' W 123°15'714.0
2017-Apr-24 16:00N 49°00' W 123°08'0 0.0
2017-Apr-24 15:30N 49°00' W 123°08'816.8
2017-Apr-24 15:00N 48°54' W 123°16'714.2
2017-Apr-24 14:30N 48°47' W 123°21'7 6.6
2017-Apr-24 13:31N 48°41' W 123°25'0 0.0
2017-Apr-24 12:59N 48°41' W 123°25'0 0.0
2017-Apr-24 12:29N 48°41' W 123°25'0 0.0
2017-Apr-24 11:59N 48°41' W 123°25'0 0.0
2017-Apr-24 11:29N 48°41' W 123°25'0 0.0
2017-Apr-24 10:59N 48°41' W 123°25'0 0.0
2017-Apr-24 10:29N 48°41' W 123°25'0 0.0
2017-Apr-24 09:59N 48°41' W 123°25'0 0.0
2017-Apr-24 09:29N 48°41' W 123°25'0 0.0
2017-Apr-24 08:59N 48°41' W 123°25'0 0.0
2017-Apr-24 08:29N 48°41' W 123°25'0 0.0
2017-Apr-24 07:59N 48°41' W 123°25'0 0.0
2017-Apr-24 07:29N 48°41' W 123°25'0 0.0
2017-Apr-24 06:56N 48°41' W 123°25'0 0.0
2017-Apr-24 06:29N 48°41' W 123°25'0 0.0
2017-Apr-24 05:56N 48°41' W 123°25'0 0.1
2017-Apr-24 05:30N 48°41' W 123°25'714.1
2017-Apr-24 05:00N 48°48' W 123°21'815.9
2017-Apr-24 04:31N 48°55' W 123°15'714.5
2017-Apr-24 04:01N 49°00' W 123°08'0 0.2
2017-Apr-24 03:30N 49°00' W 123°08'815.7
2017-Apr-24 03:00N 48°54' W 123°16'714.0
2017-Apr-24 02:30N 48°48' W 123°21'714.3
2017-Apr-24 02:00N 48°41' W 123°25'0 0.0
2017-Apr-24 01:30N 48°41' W 123°25'714.0
2017-Apr-24 01:01N 48°48' W 123°21'815.6
2017-Apr-24 00:30N 48°55' W 123°16'714.8
2017-Apr-24 00:00N 49°00' W 123°08'0 0.0
2017-Apr-23 23:30N 49°00' W 123°08'713.9
2017-Apr-23 23:00N 48°55' W 123°15'815.3
2017-Apr-23 22:30N 48°48' W 123°21'715.0
2017-Apr-23 22:00N 48°41' W 123°25'0 0.0
2017-Apr-23 21:31N 48°41' W 123°25'713.8
2017-Apr-23 21:00N 48°48' W 123°21'815.2
2017-Apr-23 20:30N 48°55' W 123°17'815.7
2017-Apr-23 20:01N 49°00' W 123°08'0 0.0
2017-Apr-23 19:30N 49°00' W 123°08'815.2
2017-Apr-23 19:00N 48°54' W 123°15'815.4
2017-Apr-23 18:30N 48°48' W 123°21'713.6
2017-Apr-23 18:00N 48°41' W 123°25'0 0.1
2017-Apr-23 17:30N 48°41' W 123°25'815.1
2017-Apr-23 17:01N 48°48' W 123°21'816.3
2017-Apr-23 16:30N 48°56' W 123°15'713.0
2017-Apr-23 16:00N 49°00' W 123°08'0 0.0
2017-Apr-23 15:30N 49°00' W 123°08'714.8
2017-Apr-23 15:00N 48°54' W 123°15'714.3
2017-Apr-23 14:30N 48°48' W 123°21'8 7.5
2017-Apr-23 13:30N 48°41' W 123°25'0 0.0
2017-Apr-23 13:01N 48°41' W 123°25'0 0.0
2017-Apr-23 12:31N 48°41' W 123°25'0 0.0
2017-Apr-23 12:00N 48°41' W 123°25'0 0.0
2017-Apr-23 11:30N 48°41' W 123°25'0 0.0
2017-Apr-23 11:00N 48°41' W 123°25'0 0.0
2017-Apr-23 10:30N 48°41' W 123°25'0 0.0
2017-Apr-23 10:00N 48°41' W 123°25'0 0.0
2017-Apr-23 09:30N 48°41' W 123°25'0 0.0
2017-Apr-23 09:00N 48°41' W 123°25'0 0.0
2017-Apr-23 08:30N 48°41' W 123°25'0 0.0
2017-Apr-23 08:00N 48°41' W 123°25'0 0.0
2017-Apr-23 07:30N 48°41' W 123°25'0 0.0
2017-Apr-23 07:00N 48°41' W 123°25'0 0.0
2017-Apr-23 06:30N 48°41' W 123°25'0 0.0
2017-Apr-23 06:00N 48°41' W 123°25'0 0.2
2017-Apr-23 05:30N 48°41' W 123°25'815.8
2017-Apr-23 05:00N 48°49' W 123°20'815.4
2017-Apr-23 04:30N 48°55' W 123°14'612.9
2017-Apr-23 04:00N 49°00' W 123°08'0 0.0
2017-Apr-23 03:30N 49°00' W 123°08'816.0
2017-Apr-23 03:00N 48°54' W 123°16'815.6
2017-Apr-23 02:30N 48°47' W 123°21'612.6
2017-Apr-23 02:00N 48°41' W 123°25'0 0.4
2017-Apr-23 01:31N 48°42' W 123°24'816.7
2017-Apr-23 01:00N 48°49' W 123°21'815.0
2017-Apr-23 00:30N 48°56' W 123°15'612.4
2017-Apr-23 00:00N 49°00' W 123°08'0 0.0
2017-Apr-22 23:30N 49°00' W 123°08'815.8
2017-Apr-22 23:00N 48°54' W 123°16'815.6
2017-Apr-22 22:30N 48°47' W 123°21'612.8
2017-Apr-22 22:00N 48°41' W 123°25'0 0.2
2017-Apr-22 21:30N 48°41' W 123°25'816.1
2017-Apr-22 21:00N 48°49' W 123°21'816.1
2017-Apr-22 20:30N 48°56' W 123°15'612.1
2017-Apr-22 20:00N 49°00' W 123°08'0 0.0
2017-Apr-22 19:30N 49°00' W 123°08'917.2
2017-Apr-22 19:00N 48°54' W 123°16'816.2
2017-Apr-22 18:30N 48°46' W 123°21'511.0
2017-Apr-22 18:00N 48°41' W 123°25'0 0.0
2017-Apr-22 17:30N 48°41' W 123°25'714.2
2017-Apr-22 17:00N 48°48' W 123°21'816.0
2017-Apr-22 16:30N 48°55' W 123°16'714.2
2017-Apr-22 16:00N 49°00' W 123°08'0 0.1
2017-Apr-22 15:31N 49°00' W 123°08'917.2
2017-Apr-22 15:01N 48°54' W 123°16'714.7
2017-Apr-22 14:31N 48°47' W 123°21'6 6.1
2017-Apr-22 13:30N 48°41' W 123°25'0 0.0
2017-Apr-22 13:00N 48°41' W 123°25'0 0.0
2017-Apr-22 12:30N 48°41' W 123°25'0 0.0
2017-Apr-22 11:57N 48°41' W 123°25'0 0.0
2017-Apr-22 11:30N 48°41' W 123°25'0 0.0
2017-Apr-22 11:00N 48°41' W 123°25'0 0.0
2017-Apr-22 10:30N 48°41' W 123°25'0 0.0
2017-Apr-22 10:00N 48°41' W 123°25'0 0.0
2017-Apr-22 09:27N 48°41' W 123°25'0 0.0
2017-Apr-22 09:00N 48°41' W 123°25'0 0.0
2017-Apr-22 08:30N 48°41' W 123°25'0 0.0
2017-Apr-22 08:00N 48°41' W 123°25'0 0.0
2017-Apr-22 07:30N 48°41' W 123°25'0 0.0
2017-Apr-22 07:00N 48°41' W 123°25'0 0.0
2017-Apr-22 06:30N 48°41' W 123°25'0 0.0
2017-Apr-22 06:00N 48°41' W 123°25'0 0.0
2017-Apr-22 05:30N 48°41' W 123°25'713.3
2017-Apr-22 05:00N 48°48' W 123°21'815.7
2017-Apr-22 04:30N 48°55' W 123°16'815.5
2017-Apr-22 04:00N 49°00' W 123°08'0 0.1
2017-Apr-22 03:31N 49°00' W 123°08'714.6
2017-Apr-22 03:00N 48°55' W 123°15'815.2
2017-Apr-22 02:30N 48°48' W 123°21'714.4
2017-Apr-22 02:01N 48°41' W 123°25'0 0.3
2017-Apr-22 01:30N 48°41' W 123°25'713.7
2017-Apr-22 01:00N 48°48' W 123°21'815.2
2017-Apr-22 00:30N 48°55' W 123°16'815.5
2017-Apr-22 00:00N 49°00' W 123°08'0 0.0
2017-Apr-21 23:30N 49°00' W 123°08'714.3
2017-Apr-21 23:00N 48°55' W 123°15'815.2
2017-Apr-21 22:30N 48°48' W 123°21'714.8
2017-Apr-21 22:01N 48°41' W 123°25'0 0.0
2017-Apr-21 21:31N 48°41' W 123°25'612.6
2017-Apr-21 21:00N 48°47' W 123°21'816.8
2017-Apr-21 20:30N 48°55' W 123°16'815.3
2017-Apr-21 20:00N 49°00' W 123°08'0 0.0
2017-Apr-21 19:30N 49°00' W 123°08'816.7
2017-Apr-21 19:00N 48°54' W 123°16'714.9
2017-Apr-21 18:30N 48°47' W 123°21'612.8
2017-Apr-21 18:00N 48°41' W 123°25'0 0.2
2017-Apr-21 17:30N 48°41' W 123°25'815.8
2017-Apr-21 17:00N 48°49' W 123°21'815.6
2017-Apr-21 16:30N 48°56' W 123°15'613.0
2017-Apr-21 16:01N 49°00' W 123°08'0 0.0
2017-Apr-21 15:30N 49°00' W 123°08'816.6
2017-Apr-21 15:00N 48°54' W 123°16'714.9
2017-Apr-21 14:30N 48°47' W 123°21'6 6.4
2017-Apr-21 13:31N 48°41' W 123°25'0 0.0
2017-Apr-21 12:58N 48°41' W 123°25'0 0.0
2017-Apr-21 12:28N 48°41' W 123°25'0 0.0
2017-Apr-21 11:58N 48°41' W 123°25'0 0.0
2017-Apr-21 11:28N 48°41' W 123°25'0 0.0
2017-Apr-21 10:58N 48°41' W 123°25'0 0.0
2017-Apr-21 10:28N 48°41' W 123°25'0 0.0
2017-Apr-21 09:58N 48°41' W 123°25'0 0.0
2017-Apr-21 09:28N 48°41' W 123°25'0 0.0
2017-Apr-21 08:58N 48°41' W 123°25'0 0.0
2017-Apr-21 08:28N 48°41' W 123°25'0 0.0
2017-Apr-21 07:49N 48°41' W 123°25'0 0.0
2017-Apr-21 07:28N 48°41' W 123°25'0 0.0
2017-Apr-21 06:58N 48°41' W 123°25'0 0.0
2017-Apr-21 06:25N 48°41' W 123°25'0 0.0
2017-Apr-21 05:58N 48°41' W 123°25'0 0.0
2017-Apr-21 05:29N 48°41' W 123°25'714.3
2017-Apr-21 05:00N 48°48' W 123°21'714.9
2017-Apr-21 04:30N 48°55' W 123°16'815.7
2017-Apr-21 04:00N 49°00' W 123°08'0 0.0
2017-Apr-21 03:30N 49°00' W 123°08'815.0
2017-Apr-21 03:00N 48°55' W 123°15'816.0
2017-Apr-21 02:31N 48°47' W 123°21'713.0
2017-Apr-21 02:00N 48°41' W 123°25'0 0.1
2017-Apr-21 01:31N 48°41' W 123°25'713.6
2017-Apr-21 01:00N 48°48' W 123°21'816.2
2017-Apr-21 00:30N 48°55' W 123°16'714.6
2017-Apr-21 00:00N 49°00' W 123°08'0 0.0
2017-Apr-20 23:30N 49°00' W 123°08'817.0
2017-Apr-20 23:01N 48°54' W 123°16'714.8
2017-Apr-20 22:30N 48°47' W 123°21'612.6
2017-Apr-20 22:00N 48°41' W 123°25'0 0.1
2017-Apr-20 21:30N 48°41' W 123°25'815.5
2017-Apr-20 21:00N 48°49' W 123°21'816.7
2017-Apr-20 20:30N 48°56' W 123°15'612.3
2017-Apr-20 20:00N 49°00' W 123°08'0 0.5
2017-Apr-20 19:30N 49°00' W 123°08'917.8
2017-Apr-20 19:01N 48°53' W 123°17'612.7
2017-Apr-20 18:30N 48°48' W 123°21'713.4
2017-Apr-20 18:00N 48°41' W 123°25'0 0.1
2017-Apr-20 17:31N 48°41' W 123°25'815.0
2017-Apr-20 17:00N 48°48' W 123°20'713.8
2017-Apr-20 16:31N 48°55' W 123°16'815.6
2017-Apr-20 16:01N 49°00' W 123°08'0 0.0
2017-Apr-20 15:30N 49°00' W 123°08'714.4
2017-Apr-20 15:00N 48°55' W 123°15'1514.8
2017-Apr-20 14:00N 48°41' W 123°25'0 0.1
2017-Apr-20 13:31N 48°41' W 123°25'0 0.0
2017-Apr-20 13:00N 48°41' W 123°25'0 0.0
2017-Apr-20 12:30N 48°41' W 123°25'0 0.0
2017-Apr-20 12:00N 48°41' W 123°25'0 0.0
2017-Apr-20 11:30N 48°41' W 123°25'0 0.0
2017-Apr-20 11:00N 48°41' W 123°25'0 0.0
2017-Apr-20 10:30N 48°41' W 123°25'0 0.0
2017-Apr-20 10:00N 48°41' W 123°25'0 0.0
2017-Apr-20 09:30N 48°41' W 123°25'0 0.0
2017-Apr-20 09:00N 48°41' W 123°25'0 0.0
2017-Apr-20 08:30N 48°41' W 123°25'0 0.0
2017-Apr-20 08:00N 48°41' W 123°25'0 0.0
2017-Apr-20 07:30N 48°41' W 123°25'0 0.0
2017-Apr-20 07:00N 48°41' W 123°25'0 0.0
2017-Apr-20 06:30N 48°41' W 123°25'0 0.0
2017-Apr-20 06:00N 48°41' W 123°25'0 0.2
2017-Apr-20 05:30N 48°41' W 123°25'815.1
2017-Apr-20 05:01N 48°49' W 123°21'713.7
2017-Apr-20 04:30N 48°55' W 123°16'815.6
2017-Apr-20 04:01N 49°00' W 123°08'0 0.0
2017-Apr-20 03:30N 49°00' W 123°08'815.1
2017-Apr-20 03:01N 48°54' W 123°15'714.1
2017-Apr-20 02:30N 48°48' W 123°21'714.8
2017-Apr-20 02:00N 48°41' W 123°25'0 0.1
2017-Apr-20 01:31N 48°41' W 123°25'714.3
2017-Apr-20 01:00N 48°48' W 123°21'714.8
2017-Apr-20 00:30N 48°55' W 123°16'815.3
2017-Apr-20 00:00N 49°00' W 123°08'0 0.0
2017-Apr-19 23:30N 49°00' W 123°08'815.4
2017-Apr-19 23:00N 48°54' W 123°15'815.1
2017-Apr-19 22:30N 48°48' W 123°21'713.9
2017-Apr-19 22:00N 48°41' W 123°25'0 0.0
2017-Apr-19 21:30N 48°41' W 123°25'713.7
2017-Apr-19 21:00N 48°48' W 123°21'816.7
2017-Apr-19 20:30N 48°55' W 123°16'714.1
2017-Apr-19 20:00N 49°00' W 123°08'0 0.0
2017-Apr-19 19:30N 49°00' W 123°08'714.2
2017-Apr-19 19:00N 48°55' W 123°15'714.4
2017-Apr-19 18:30N 48°49' W 123°21'815.7
2017-Apr-19 18:00N 48°41' W 123°25'0 0.0
2017-Apr-19 17:31N 48°41' W 123°25'612.8
2017-Apr-19 17:01N 48°47' W 123°21'816.0
2017-Apr-19 16:31N 48°55' W 123°16'815.5
2017-Apr-19 16:00N 49°00' W 123°08'0 0.2
2017-Apr-19 15:30N 49°00' W 123°08'714.1
2017-Apr-19 15:00N 48°55' W 123°15'815.7
2017-Apr-19 14:30N 48°48' W 123°20'7 7.2
2017-Apr-19 13:30N 48°41' W 123°25'0 0.0
2017-Apr-19 13:00N 48°41' W 123°25'0 0.0
2017-Apr-19 12:30N 48°41' W 123°25'0 0.0
2017-Apr-19 12:00N 48°41' W 123°25'0 0.0
2017-Apr-19 11:30N 48°41' W 123°25'0 0.0
2017-Apr-19 11:00N 48°41' W 123°25'0 0.0
2017-Apr-19 10:30N 48°41' W 123°25'0 0.0
2017-Apr-19 10:00N 48°41' W 123°25'0 0.0
2017-Apr-19 09:30N 48°41' W 123°25'0 0.0
2017-Apr-19 09:00N 48°41' W 123°25'0 0.0
2017-Apr-19 08:30N 48°41' W 123°25'0 0.0
2017-Apr-19 08:00N 48°41' W 123°25'0 0.0
2017-Apr-19 07:30N 48°41' W 123°25'0 0.0
2017-Apr-19 07:00N 48°41' W 123°25'0 0.0
2017-Apr-19 06:30N 48°41' W 123°25'0 0.0
2017-Apr-19 06:00N 48°41' W 123°25'0 0.0
2017-Apr-19 05:30N 48°41' W 123°25'714.1
2017-Apr-19 05:00N 48°48' W 123°21'714.7
2017-Apr-19 04:30N 48°55' W 123°16'815.5
2017-Apr-19 04:00N 49°00' W 123°08'0 0.1
2017-Apr-19 03:30N 49°00' W 123°08'715.0
2017-Apr-19 03:00N 48°55' W 123°15'714.8
2017-Apr-19 02:30N 48°48' W 123°21'714.6
2017-Apr-19 02:00N 48°41' W 123°25'0 0.3
2017-Apr-19 01:31N 48°41' W 123°25'815.0
2017-Apr-19 01:00N 48°49' W 123°21'815.0
2017-Apr-19 00:30N 48°55' W 123°16'714.3
2017-Apr-19 00:00N 49°00' W 123°08'0 0.0
2017-Apr-18 23:30N 49°00' W 123°08'815.1
2017-Apr-18 23:00N 48°54' W 123°15'815.2
2017-Apr-18 22:31N 48°48' W 123°21'713.8
2017-Apr-18 22:00N 48°41' W 123°25'0 0.0
2017-Apr-18 21:30N 48°41' W 123°25'713.9
2017-Apr-18 21:00N 48°48' W 123°21'816.8
2017-Apr-18 20:30N 48°55' W 123°15'713.8
2017-Apr-18 20:00N 49°00' W 123°08'0 0.0
2017-Apr-18 19:30N 49°00' W 123°08'815.6
2017-Apr-18 19:00N 48°54' W 123°15'815.2
2017-Apr-18 18:30N 48°48' W 123°21'713.3
2017-Apr-18 18:00N 48°41' W 123°25'0 0.1
2017-Apr-18 17:30N 48°41' W 123°25'815.4
2017-Apr-18 17:00N 48°49' W 123°21'816.3
2017-Apr-18 16:30N 48°56' W 123°15'612.8
2017-Apr-18 16:01N 49°00' W 123°08'0 0.0
2017-Apr-18 15:30N 49°00' W 123°08'714.5
2017-Apr-18 15:00N 48°55' W 123°15'815.9
2017-Apr-18 14:30N 48°48' W 123°21'7 6.9
2017-Apr-18 13:30N 48°41' W 123°25'0 0.0
2017-Apr-18 13:00N 48°41' W 123°25'0 0.0
2017-Apr-18 12:30N 48°41' W 123°25'0 0.0
2017-Apr-18 12:00N 48°41' W 123°25'0 0.0
2017-Apr-18 11:30N 48°41' W 123°25'0 0.0
2017-Apr-18 11:00N 48°41' W 123°25'0 0.0
2017-Apr-18 10:30N 48°41' W 123°25'0 0.0
2017-Apr-18 10:00N 48°41' W 123°25'0 0.0
2017-Apr-18 09:30N 48°41' W 123°25'0 0.0
2017-Apr-18 09:00N 48°41' W 123°25'0 0.0
2017-Apr-18 08:30N 48°41' W 123°25'0 0.0
2017-Apr-18 08:00N 48°41' W 123°25'0 0.0
2017-Apr-18 07:30N 48°41' W 123°25'0 0.0
2017-Apr-18 07:00N 48°41' W 123°25'0 0.0
2017-Apr-18 06:30N 48°41' W 123°25'0 0.0
2017-Apr-18 06:00N 48°41' W 123°25'0 0.0
2017-Apr-18 05:31N 48°41' W 123°25'713.5
2017-Apr-18 05:01N 48°48' W 123°21'815.7
2017-Apr-18 04:31N 48°55' W 123°16'815.2
2017-Apr-18 04:00N 49°00' W 123°08'0 0.1
2017-Apr-18 03:31N 49°00' W 123°08'714.3
2017-Apr-18 03:00N 48°55' W 123°15'815.0
2017-Apr-18 02:30N 48°48' W 123°21'714.7
2017-Apr-18 02:00N 48°41' W 123°25'0 0.1
2017-Apr-18 01:30N 48°41' W 123°25'815.2
2017-Apr-18 01:00N 48°49' W 123°21'714.8
2017-Apr-18 00:30N 48°55' W 123°16'714.7
2017-Apr-18 00:00N 49°00' W 123°08'0 0.0
2017-Apr-17 23:31N 49°00' W 123°08'714.8
2017-Apr-17 23:00N 48°54' W 123°15'714.8
2017-Apr-17 22:30N 48°48' W 123°21'714.5
2017-Apr-17 22:00N 48°41' W 123°25'0 0.0
2017-Apr-17 21:30N 48°41' W 123°25'611.6
2017-Apr-17 21:00N 48°47' W 123°21'816.3
2017-Apr-17 20:31N 48°54' W 123°16'816.6
2017-Apr-17 20:01N 49°00' W 123°08'0 0.1
2017-Apr-17 19:30N 49°00' W 123°08'714.5
2017-Apr-17 19:00N 48°55' W 123°15'  

Dump ship's entire track history